Time;durP1;ratioP1;P1;durP2;ratioP2;P2;SDS_P1;SDS_P2;PMS_P1;PMS_P2;Temp;Humidity;BMP_temperature;BMP_pressure;BME280_temperature;BME280_humidity;BME280_pressure;Samples;Min_cycle;Max_cycle;Signal;HPM_P1;HPM_P2
2023/08/17 00:01:26;;;;;;;3.28;2.85;;;25.30;62.20;;;;;;5114726;28;20045;-69
2023/08/17 00:03:52;;;;;;;4.28;3.00;;;25.30;62.20;;;;;;5114438;28;20028;-67
2023/08/17 00:06:18;;;;;;;4.18;3.10;;;25.30;62.20;;;;;;5114464;28;20054;-67
2023/08/17 00:08:44;;;;;;;3.53;3.05;;;25.30;62.30;;;;;;5134359;27;20394;-68
2023/08/17 00:11:09;;;;;;;3.05;2.75;;;25.30;62.30;;;;;;5110829;27;20443;-67
2023/08/17 00:13:35;;;;;;;3.30;3.00;;;25.30;62.30;;;;;;5112365;28;20030;-67
2023/08/17 00:16:01;;;;;;;3.40;3.10;;;25.30;62.20;;;;;;5113423;28;20042;-67
2023/08/17 00:18:27;;;;;;;3.20;2.80;;;25.30;62.20;;;;;;5112982;28;20088;-68
2023/08/17 00:20:54;;;;;;;3.30;3.00;;;25.20;62.20;;;;;;5114327;28;20043;-67
2023/08/17 00:23:20;;;;;;;3.47;3.00;;;25.20;62.30;;;;;;5114424;28;20039;-67
2023/08/17 00:25:47;;;;;;;3.22;2.80;;;25.20;62.30;;;;;;5113939;28;20035;-69
2023/08/17 00:28:14;;;;;;;3.15;2.72;;;25.30;62.40;;;;;;5114366;28;20469;-67
2023/08/17 00:30:39;;;;;;;3.88;2.72;;;25.30;62.30;;;;;;5113432;28;20111;-67
2023/08/17 00:33:05;;;;;;;3.25;2.70;;;25.30;62.30;;;;;;5114410;28;20110;-68
2023/08/17 00:35:32;;;;;;;2.92;2.63;;;25.40;62.50;;;;;;5112918;28;20031;-68
2023/08/17 00:37:58;;;;;;;3.00;2.70;;;25.40;62.30;;;;;;5113932;28;20431;-67
2023/08/17 00:40:24;;;;;;;3.47;2.80;;;25.40;62.20;;;;;;5113396;28;20032;-68
2023/08/17 00:42:49;;;;;;;2.92;2.63;;;25.40;62.10;;;;;;5114153;28;20446;-68
2023/08/17 00:45:15;;;;;;;3.22;2.72;;;25.40;62.10;;;;;;5113923;28;20362;-68
2023/08/17 00:47:42;;;;;;;2.70;2.50;;;25.50;62.20;;;;;;5113794;28;20030;-68
2023/08/17 00:50:08;;;;;;;3.30;2.60;;;25.50;62.10;;;;;;5113440;28;20118;-68
2023/08/17 00:52:34;;;;;;;4.00;2.63;;;25.40;62.00;;;;;;5113490;28;20389;-68
2023/08/17 00:55:01;;;;;;;3.17;2.85;;;25.40;62.00;;;;;;5113961;28;20031;-68
2023/08/17 00:57:26;;;;;;;3.70;2.65;;;25.40;62.10;;;;;;5112802;28;20019;-68
2023/08/17 00:59:53;;;;;;;2.80;2.60;;;25.40;62.10;;;;;;5113838;28;20449;-68
2023/08/17 01:02:19;;;;;;;2.78;2.47;;;25.40;62.00;;;;;;5113207;28;20488;-69
2023/08/17 01:04:45;;;;;;;2.80;2.60;;;25.40;62.10;;;;;;5113905;28;20032;-68
2023/08/17 01:07:10;;;;;;;3.75;2.55;;;25.40;62.10;;;;;;5112905;28;20542;-68
2023/08/17 01:09:37;;;;;;;4.15;2.50;;;25.40;62.10;;;;;;5113425;28;20057;-68
2023/08/17 01:12:24;;;;;;;3.33;3.03;;;25.40;62.30;;;;;;5127573;27;20075;-68
2023/08/17 01:15:21;;;;;;;3.10;2.80;;;25.30;62.30;;;;;;5112981;27;20417;-68
2023/08/17 01:17:56;;;;;;;3.63;2.90;;;25.20;62.50;;;;;;5104083;28;20020;-67
2023/08/17 01:20:23;;;;;;;2.97;2.70;;;25.20;62.70;;;;;;5112568;28;20032;-67
2023/08/17 01:22:50;;;;;;;3.10;2.80;;;25.10;62.70;;;;;;5112881;28;20377;-68
2023/08/17 01:25:16;;;;;;;2.92;2.72;;;25.00;62.90;;;;;;5104766;28;20051;-67
2023/08/17 01:27:44;;;;;;;4.53;2.80;;;25.00;63.00;;;;;;5113222;28;20465;-68
2023/08/17 01:30:12;;;;;;;3.40;3.00;;;25.00;63.00;;;;;;5112418;28;20077;-68
2023/08/17 01:32:41;;;;;;;4.32;2.72;;;25.00;63.10;;;;;;5113613;28;20381;-68
2023/08/17 01:35:27;;;;;;;2.78;2.50;;;25.00;63.10;;;;;;5113294;28;20031;-67
2023/08/17 01:37:55;;;;;;;2.65;2.45;;;25.00;63.10;;;;;;5113434;28;20118;-67
2023/08/17 01:40:21;;;;;;;3.08;2.78;;;25.00;63.00;;;;;;5113067;28;20099;-68
2023/08/17 01:42:49;;;;;;;2.88;2.53;;;25.00;63.00;;;;;;5112158;28;20032;-68
2023/08/17 01:45:15;;;;;;;2.92;2.45;;;25.00;63.00;;;;;;5113285;28;20406;-67
2023/08/17 01:47:40;;;;;;;2.80;2.60;;;25.00;62.90;;;;;;5113680;28;20462;-68
2023/08/17 01:50:06;;;;;;;3.35;2.80;;;25.10;63.00;;;;;;5113336;28;20077;-66
2023/08/17 01:52:32;;;;;;;3.72;2.83;;;25.10;63.00;;;;;;5112030;28;20042;-70
2023/08/17 01:54:58;;;;;;;2.90;2.60;;;25.10;62.90;;;;;;5112180;28;20587;-66
2023/08/17 01:57:23;;;;;;;2.92;2.63;;;25.10;63.00;;;;;;5113357;28;20039;-66
2023/08/17 01:59:49;;;;;;;3.00;2.70;;;25.10;63.10;;;;;;5113662;28;20046;-66
2023/08/17 02:02:15;;;;;;;3.20;2.90;;;25.00;63.10;;;;;;5113457;28;20019;-65
2023/08/17 02:04:41;;;;;;;3.13;2.70;;;25.00;63.20;;;;;;5113333;28;20069;-67
2023/08/17 02:07:06;;;;;;;3.45;3.00;;;25.00;63.40;;;;;;5112997;28;20385;-67
2023/08/17 02:09:32;;;;;;;3.13;2.80;;;25.00;63.50;;;;;;5113288;28;20331;-67
2023/08/17 02:11:57;;;;;;;3.13;2.83;;;25.00;63.50;;;;;;5113242;28;20036;-67
2023/08/17 02:14:23;;;;;;;3.72;2.97;;;24.90;63.50;;;;;;5112846;28;20020;-68
2023/08/17 02:16:49;;;;;;;5.93;2.80;;;25.00;63.50;;;;;;5113101;28;20054;-67
2023/08/17 02:19:14;;;;;;;4.10;2.85;;;25.00;63.50;;;;;;5112916;28;20115;-67
2023/08/17 02:21:40;;;;;;;2.95;2.63;;;24.90;63.50;;;;;;5112806;28;20034;-67
2023/08/17 02:24:06;;;;;;;3.00;2.70;;;24.90;63.60;;;;;;5113434;28;20032;-68
2023/08/17 02:26:31;;;;;;;3.47;2.90;;;24.90;63.60;;;;;;5113450;28;20059;-67
2023/08/17 02:28:57;;;;;;;3.08;2.65;;;24.90;63.60;;;;;;5113233;28;20063;-67
2023/08/17 02:31:23;;;;;;;3.85;2.50;;;24.90;63.60;;;;;;5113128;28;20030;-67
2023/08/17 02:33:49;;;;;;;5.07;2.30;;;25.00;63.60;;;;;;5113055;28;20381;-67
2023/08/17 02:36:14;;;;;;;4.10;2.75;;;25.00;63.40;;;;;;5113883;28;20030;-67
2023/08/17 02:38:40;;;;;;;3.17;2.50;;;25.00;63.30;;;;;;5116763;28;20034;-67
2023/08/17 02:41:05;;;;;;;3.22;2.60;;;25.10;63.10;;;;;;5116963;28;20098;-68
2023/08/17 02:43:31;;;;;;;3.60;2.55;;;25.20;63.10;;;;;;5116474;28;20027;-67
2023/08/17 02:45:59;;;;;;;2.80;2.60;;;25.20;63.10;;;;;;5114975;28;20031;-67
2023/08/17 02:48:25;;;;;;;4.13;2.78;;;25.30;63.00;;;;;;5116622;28;20042;-67
2023/08/17 02:50:50;;;;;;;2.90;2.65;;;25.30;62.80;;;;;;5115921;28;20011;-66
2023/08/17 02:53:16;;;;;;;2.67;2.45;;;25.30;62.70;;;;;;5116691;28;20054;-66
2023/08/17 02:55:42;;;;;;;4.45;2.63;;;25.30;62.80;;;;;;5115367;28;20034;-67
2023/08/17 02:58:07;;;;;;;3.92;3.10;;;25.30;62.60;;;;;;5116456;28;20075;-66
2023/08/17 03:00:33;;;;;;;2.65;2.45;;;25.30;62.60;;;;;;5116696;28;20036;-67
2023/08/17 03:02:59;;;;;;;2.78;2.40;;;25.20;62.60;;;;;;5116420;28;20034;-67
2023/08/17 03:05:24;;;;;;;3.55;2.40;;;25.30;62.60;;;;;;5116125;28;20035;-66
2023/08/17 03:07:50;;;;;;;2.78;2.58;;;25.20;62.60;;;;;;5115146;28;20032;-66
2023/08/17 03:10:17;;;;;;;2.72;2.53;;;25.20;62.70;;;;;;5116330;28;20051;-66
2023/08/17 03:12:42;;;;;;;2.85;2.40;;;25.10;62.70;;;;;;5115012;28;20024;-67
2023/08/17 03:15:08;;;;;;;2.50;2.30;;;25.00;62.70;;;;;;5116373;28;20438;-66
2023/08/17 03:17:34;;;;;;;3.00;2.70;;;25.00;62.70;;;;;;5114793;28;20069;-66
2023/08/17 03:20:00;;;;;;;2.60;2.40;;;24.90;62.80;;;;;;5115728;28;20028;-66
2023/08/17 03:22:25;;;;;;;2.90;2.50;;;24.80;63.00;;;;;;5116073;28;20023;-68
2023/08/17 03:24:51;;;;;;;2.60;2.40;;;24.80;63.20;;;;;;5115024;28;20110;-67
2023/08/17 03:27:17;;;;;;;3.25;2.70;;;24.80;63.10;;;;;;5115085;28;20043;-67
2023/08/17 03:29:42;;;;;;;2.40;2.20;;;24.80;63.20;;;;;;5114509;28;20474;-66
2023/08/17 03:32:08;;;;;;;2.63;2.40;;;24.90;63.10;;;;;;5115804;28;20107;-67
2023/08/17 03:34:33;;;;;;;3.88;2.40;;;24.90;63.00;;;;;;5115522;28;20153;-66
2023/08/17 03:36:59;;;;;;;3.30;2.90;;;24.90;62.80;;;;;;5115711;28;20032;-66
2023/08/17 03:39:25;;;;;;;2.95;2.65;;;24.90;62.80;;;;;;5115573;28;20034;-66
2023/08/17 03:41:51;;;;;;;4.30;2.85;;;24.90;62.80;;;;;;5115506;28;20026;-67
2023/08/17 03:44:17;;;;;;;3.03;2.72;;;24.80;62.80;;;;;;5115786;27;20103;-67
2023/08/17 03:46:42;;;;;;;4.07;3.08;;;24.90;62.90;;;;;;5115246;28;20168;-66
2023/08/17 03:49:08;;;;;;;3.03;2.72;;;24.80;62.70;;;;;;5115015;28;20098;-66
2023/08/17 03:51:33;;;;;;;4.18;2.92;;;24.80;62.80;;;;;;5115258;28;20035;-66
2023/08/17 03:53:59;;;;;;;3.63;2.70;;;24.70;62.80;;;;;;5115514;28;20035;-66
2023/08/17 03:56:25;;;;;;;3.95;2.60;;;24.70;63.00;;;;;;5115317;28;20028;-68
2023/08/17 03:58:52;;;;;;;3.38;2.70;;;24.70;62.90;;;;;;5113675;28;20019;-67
2023/08/17 04:01:18;;;;;;;3.63;2.88;;;24.80;62.80;;;;;;5114531;28;20028;-66
2023/08/17 04:03:43;;;;;;;2.70;2.50;;;24.80;62.90;;;;;;5113881;28;20034;-66
2023/08/17 04:06:10;;;;;;;3.58;2.85;;;24.80;62.80;;;;;;5114085;28;20034;-67
2023/08/17 04:08:37;;;;;;;2.70;2.50;;;24.80;62.80;;;;;;5113464;28;20434;-67
2023/08/17 04:11:03;;;;;;;2.40;2.20;;;24.80;62.70;;;;;;5114635;28;20058;-66
2023/08/17 04:13:29;;;;;;;3.90;3.30;;;24.90;62.70;;;;;;5114766;27;20027;-66
2023/08/17 04:15:54;;;;;;;4.07;2.65;;;24.80;62.60;;;;;;5114643;28;20040;-66
2023/08/17 04:18:20;;;;;;;3.70;2.58;;;24.80;62.50;;;;;;5114376;28;20027;-66
2023/08/17 04:20:46;;;;;;;2.78;2.42;;;24.80;62.50;;;;;;5114832;28;20444;-67
2023/08/17 04:23:12;;;;;;;3.45;2.60;;;24.80;62.60;;;;;;5114925;28;20032;-67
2023/08/17 04:25:38;;;;;;;3.00;2.45;;;24.80;62.70;;;;;;5114626;28;20445;-66
2023/08/17 04:28:04;;;;;;;2.97;2.70;;;24.90;62.80;;;;;;5113129;28;20211;-66
2023/08/17 04:30:29;;;;;;;2.80;2.50;;;24.90;62.70;;;;;;5114105;28;20489;-66
2023/08/17 04:32:55;;;;;;;3.63;3.05;;;24.90;62.70;;;;;;5114095;28;20027;-67
2023/08/17 04:35:21;;;;;;;6.32;3.95;;;24.90;62.70;;;;;;5113284;28;20020;-67
2023/08/17 04:37:47;;;;;;;6.55;4.13;;;24.90;62.80;;;;;;5111265;28;20027;-66
2023/08/17 04:40:13;;;;;;;3.60;3.05;;;24.90;62.80;;;;;;5112076;28;20027;-67
2023/08/17 04:42:39;;;;;;;5.15;3.00;;;24.80;62.90;;;;;;5113669;28;20020;-67
2023/08/17 04:45:05;;;;;;;3.42;2.90;;;24.90;63.00;;;;;;5112087;28;20039;-66
2023/08/17 04:47:31;;;;;;;3.35;3.00;;;24.90;63.00;;;;;;5113001;28;20115;-66
2023/08/17 04:49:57;;;;;;;3.25;2.60;;;24.90;63.00;;;;;;5114036;28;20213;-66
2023/08/17 04:52:22;;;;;;;5.03;2.78;;;24.80;63.00;;;;;;5114073;28;20020;-66
2023/08/17 04:54:49;;;;;;;3.38;2.78;;;24.80;63.00;;;;;;5111419;28;20026;-67
2023/08/17 04:57:14;;;;;;;3.70;2.70;;;24.90;63.20;;;;;;5111880;28;20070;-66
2023/08/17 04:59:40;;;;;;;3.20;2.70;;;24.90;63.10;;;;;;5113224;28;20055;-67
2023/08/17 05:02:06;;;;;;;3.00;2.70;;;25.00;63.00;;;;;;5112240;28;20468;-67
2023/08/17 05:04:32;;;;;;;2.75;2.40;;;25.00;62.80;;;;;;5113637;28;20099;-66
2023/08/17 05:06:57;;;;;;;2.80;2.60;;;25.10;62.70;;;;;;5113424;28;20041;-65
2023/08/17 05:09:23;;;;;;;2.72;2.50;;;25.20;62.60;;;;;;5112225;28;20027;-67
2023/08/17 05:11:49;;;;;;;2.90;2.60;;;25.20;62.50;;;;;;5112733;28;20042;-67
2023/08/17 05:14:14;;;;;;;3.40;2.67;;;25.20;62.30;;;;;;5113948;28;20118;-67
2023/08/17 05:16:40;;;;;;;2.65;2.45;;;25.30;62.30;;;;;;5112436;28;20054;-67
2023/08/17 05:19:05;;;;;;;3.05;2.70;;;25.30;62.20;;;;;;5113106;28;20462;-67
2023/08/17 05:21:31;;;;;;;2.75;2.50;;;25.30;62.10;;;;;;5113496;28;20024;-66
2023/08/17 05:23:57;;;;;;;4.20;2.92;;;25.20;62.00;;;;;;5113599;28;20028;-66
2023/08/17 05:26:23;;;;;;;4.53;2.70;;;25.20;62.00;;;;;;5113459;28;20032;-66
2023/08/17 05:28:49;;;;;;;2.78;2.58;;;25.20;62.10;;;;;;5113388;28;20049;-66
2023/08/17 05:31:15;;;;;;;2.63;2.42;;;25.10;62.00;;;;;;5113724;28;20023;-66
2023/08/17 05:33:40;;;;;;;3.88;2.67;;;25.10;62.00;;;;;;5113731;28;20111;-66
2023/08/17 05:36:07;;;;;;;2.90;2.70;;;25.10;62.20;;;;;;5113102;28;20063;-65
2023/08/17 05:38:33;;;;;;;3.38;2.75;;;25.10;62.20;;;;;;5113119;28;20028;-66
2023/08/17 05:40:59;;;;;;;3.30;3.00;;;25.10;62.20;;;;;;5113201;28;20066;-66
2023/08/17 05:43:25;;;;;;;2.97;2.60;;;25.10;62.20;;;;;;5113023;28;20032;-69
2023/08/17 05:45:51;;;;;;;3.10;2.85;;;25.20;62.20;;;;;;5112138;28;20031;-66
2023/08/17 05:48:21;;;;;;;3.70;3.00;;;25.20;62.00;;;;;;5113192;28;20381;-67
2023/08/17 05:50:47;;;;;;;3.10;2.80;;;25.20;61.80;;;;;;5113753;28;20062;-66
2023/08/17 05:53:13;;;;;;;3.70;2.95;;;25.20;61.70;;;;;;5113552;28;20051;-67
2023/08/17 05:55:38;;;;;;;3.35;3.05;;;25.20;61.60;;;;;;5112927;28;20028;-66
2023/08/17 05:58:04;;;;;;;3.70;3.28;;;25.20;61.60;;;;;;5113409;28;20028;-66
2023/08/17 06:00:30;;;;;;;3.90;2.92;;;25.30;61.70;;;;;;5113782;28;20121;-67
2023/08/17 06:03:00;;;;;;;3.10;2.53;;;25.30;61.70;;;;;;5112344;28;20039;-67
2023/08/17 06:05:28;;;;;;;3.35;2.60;;;25.40;61.80;;;;;;5113243;28;20028;-67
2023/08/17 06:07:57;;;;;;;4.45;3.00;;;25.50;61.60;;;;;;5112958;28;20066;-68
2023/08/17 06:10:25;;;;;;;3.05;2.63;;;25.60;61.50;;;;;;5110764;28;20489;-68
2023/08/17 06:12:53;;;;;;;3.45;2.65;;;25.60;61.30;;;;;;5116138;28;20904;-67
2023/08/17 06:15:18;;;;;;;2.60;2.38;;;25.60;61.20;;;;;;5116305;28;20024;-67
2023/08/17 06:17:44;;;;;;;3.17;2.38;;;25.60;61.30;;;;;;5117025;28;20038;-68
2023/08/17 06:20:10;;;;;;;3.65;2.80;;;25.60;61.20;;;;;;5117461;28;20024;-66
2023/08/17 06:22:36;;;;;;;4.63;2.50;;;25.60;61.00;;;;;;5116355;28;20072;-70
2023/08/17 06:25:01;;;;;;;3.88;2.53;;;25.70;61.20;;;;;;5115584;28;20023;-71
2023/08/17 06:27:27;;;;;;;2.80;2.60;;;25.60;61.10;;;;;;5117057;28;20455;-70
2023/08/17 06:29:53;;;;;;;2.70;2.50;;;25.60;61.20;;;;;;5117137;28;20066;-70
2023/08/17 06:32:18;;;;;;;2.63;2.40;;;25.70;61.40;;;;;;5095403;28;20028;-70
2023/08/17 06:34:44;;;;;;;3.95;2.55;;;25.70;61.40;;;;;;5103274;28;20059;-70
2023/08/17 06:37:09;;;;;;;3.13;2.35;;;25.80;61.50;;;;;;5116320;28;20485;-72
2023/08/17 06:39:35;;;;;;;2.53;2.33;;;25.80;61.40;;;;;;5115867;28;20110;-70
2023/08/17 06:42:01;;;;;;;2.70;2.50;;;25.90;61.40;;;;;;5114925;28;20027;-70
2023/08/17 06:44:26;;;;;;;4.78;2.60;;;25.90;61.30;;;;;;5115966;28;20019;-71
2023/08/17 06:46:52;;;;;;;2.80;2.50;;;26.00;61.30;;;;;;5116357;28;20020;-71
2023/08/17 06:49:18;;;;;;;2.83;2.55;;;26.00;61.40;;;;;;5116299;28;20135;-71
2023/08/17 06:51:43;;;;;;;2.80;2.55;;;26.10;61.40;;;;;;5140432;27;20489;-72
2023/08/17 06:54:09;;;;;;;3.20;2.40;;;26.20;61.30;;;;;;5115522;28;20031;-73
2023/08/17 06:56:35;;;;;;;3.13;2.50;;;26.20;61.20;;;;;;5115890;28;20108;-72
2023/08/17 06:59:01;;;;;;;3.13;2.83;;;26.30;61.20;;;;;;5116234;28;20026;-73
2023/08/17 07:01:26;;;;;;;3.28;2.97;;;26.30;61.20;;;;;;5116018;28;20035;-73
2023/08/17 07:03:52;;;;;;;4.38;2.70;;;26.30;61.00;;;;;;5115937;28;20023;-71
2023/08/17 07:06:18;;;;;;;5.63;2.33;;;26.30;60.90;;;;;;5115796;28;20024;-74
2023/08/17 07:08:43;;;;;;;2.28;2.13;;;26.40;60.80;;;;;;5115922;28;20027;-73
2023/08/17 07:11:09;;;;;;;2.40;2.20;;;26.50;60.70;;;;;;5116004;28;20127;-74
2023/08/17 07:13:35;;;;;;;2.97;2.63;;;26.50;60.30;;;;;;5115989;28;20091;-75
2023/08/17 07:16:00;;;;;;;2.88;2.17;;;26.50;60.20;;;;;;5140071;27;20115;-73
2023/08/17 07:18:26;;;;;;;3.65;3.10;;;26.60;60.00;;;;;;5115557;27;20030;-73
2023/08/17 07:20:52;;;;;;;2.63;2.30;;;26.60;59.80;;;;;;5115453;28;20393;-71
2023/08/17 07:23:17;;;;;;;2.80;2.50;;;26.60;59.60;;;;;;5114467;28;20059;-72
2023/08/17 07:25:44;;;;;;;3.65;2.35;;;26.60;59.60;;;;;;5115345;28;20066;-74
2023/08/17 07:28:09;;;;;;;2.60;2.35;;;26.60;59.60;;;;;;5112735;28;20023;-73
2023/08/17 07:30:35;;;;;;;3.30;2.42;;;26.60;59.50;;;;;;5114214;28;20393;-72
2023/08/17 07:33:01;;;;;;;2.58;2.38;;;26.60;59.40;;;;;;5115057;28;20020;-72
2023/08/17 07:35:27;;;;;;;2.80;2.50;;;26.70;59.30;;;;;;5115328;28;20051;-73
2023/08/17 07:37:52;;;;;;;2.20;2.00;;;26.70;59.10;;;;;;5114474;28;20528;-74
2023/08/17 07:40:18;;;;;;;2.33;2.13;;;26.70;59.00;;;;;;5115152;28;20027;-72
2023/08/17 07:42:45;;;;;;;2.50;2.28;;;26.70;58.90;;;;;;5115315;28;20043;-73
2023/08/17 07:45:11;;;;;;;2.13;1.92;;;26.80;58.70;;;;;;5115182;28;20020;-73
2023/08/17 07:47:37;;;;;;;2.53;2.20;;;26.80;58.60;;;;;;5114806;28;20030;-73
2023/08/17 07:50:04;;;;;;;2.28;2.08;;;26.80;58.40;;;;;;5114891;28;20024;-71
2023/08/17 07:52:30;;;;;;;2.55;2.10;;;26.90;58.30;;;;;;5113471;28;20051;-72
2023/08/17 07:54:56;;;;;;;2.60;1.92;;;26.90;58.20;;;;;;5115004;28;20023;-73
2023/08/17 07:57:21;;;;;;;3.47;2.15;;;27.00;58.30;;;;;;5114504;28;20073;-73
2023/08/17 07:59:47;;;;;;;3.97;3.00;;;27.00;58.10;;;;;;5114615;28;20020;-76
2023/08/17 08:02:13;;;;;;;2.75;2.35;;;27.00;58.30;;;;;;5114420;28;20092;-77
2023/08/17 08:04:39;;;;;;;2.50;2.30;;;27.00;58.10;;;;;;5113035;28;20030;-76
2023/08/17 08:07:04;;;;;;;4.22;2.75;;;27.10;58.10;;;;;;5112059;28;20122;-76
2023/08/17 08:09:30;;;;;;;3.17;2.70;;;27.10;58.20;;;;;;5113648;28;20439;-76
2023/08/17 08:11:55;;;;;;;3.47;2.50;;;27.10;58.20;;;;;;5113705;28;20032;-77
2023/08/17 08:14:21;;;;;;;3.25;2.60;;;27.10;58.10;;;;;;5112430;28;20076;-77
2023/08/17 08:16:47;;;;;;;3.53;2.70;;;27.10;58.20;;;;;;5114983;28;20358;-77
2023/08/17 08:19:13;;;;;;;5.88;3.92;;;27.20;58.30;;;;;;5114642;28;20419;-75
2023/08/17 08:21:38;;;;;;;2.60;2.40;;;27.20;58.10;;;;;;5113723;28;20031;-79
2023/08/17 08:24:04;;;;;;;2.88;2.58;;;27.20;58.10;;;;;;5114317;28;20023;-78
2023/08/17 08:26:30;;;;;;;3.08;2.35;;;27.20;58.00;;;;;;5114342;28;20043;-80
2023/08/17 08:28:56;;;;;;;2.30;2.10;;;27.30;58.00;;;;;;5114273;28;20470;-79
2023/08/17 08:31:21;;;;;;;4.40;2.22;;;27.30;57.80;;;;;;5114132;28;20023;-78
2023/08/17 08:33:47;;;;;;;3.40;2.30;;;27.40;57.80;;;;;;5113651;28;20423;-78
2023/08/17 08:36:12;;;;;;;2.60;2.10;;;27.40;57.70;;;;;;5113744;28;20024;-79
2023/08/17 08:38:38;;;;;;;2.45;2.25;;;27.40;57.60;;;;;;5113449;28;20039;-77
2023/08/17 08:41:08;;;;;;;2.03;1.90;;;27.50;57.60;;;;;;5110146;28;20077;-76
2023/08/17 08:43:34;;;;;;;2.22;2.00;;;27.50;57.40;;;;;;5114189;28;20023;-74
2023/08/17 08:45:59;;;;;;;2.53;2.05;;;27.50;57.40;;;;;;5113717;28;20112;-76
2023/08/17 08:48:27;;;;;;;2.65;2.25;;;27.50;57.40;;;;;;5111945;28;20058;-76
2023/08/17 08:50:55;;;;;;;4.80;2.38;;;27.60;57.30;;;;;;5112292;28;20445;-75
2023/08/17 08:53:28;;;;;;;3.25;2.13;;;27.60;57.20;;;;;;5113865;28;20023;-76
2023/08/17 08:55:59;;;;;;;2.40;2.10;;;27.70;57.20;;;;;;5113726;28;20023;-76
2023/08/17 08:58:26;;;;;;;3.55;2.10;;;27.70;57.10;;;;;;5111277;28;20034;-77
2023/08/17 09:00:53;;;;;;;3.60;1.90;;;27.70;57.00;;;;;;5109659;28;20032;-76
2023/08/17 09:03:20;;;;;;;2.65;2.10;;;27.80;57.00;;;;;;5113403;28;20012;-76
2023/08/17 09:05:48;;;;;;;2.35;1.80;;;27.80;57.00;;;;;;5111444;28;20020;-76
2023/08/17 09:08:15;;;;;;;4.93;1.90;;;27.80;56.80;;;;;;5110970;28;20032;-76
2023/08/17 09:10:41;;;;;;;3.65;3.33;;;27.90;56.60;;;;;;5109957;28;20048;-88
2023/08/17 09:13:08;;;;;;;4.03;2.50;;;27.90;56.40;;;;;;5114056;28;20205;-92
2023/08/17 09:15:34;;;;;;;3.20;2.53;;;27.90;56.60;;;;;;5114256;28;20026;-87
2023/08/17 09:18:00;;;;;;;4.05;2.42;;;27.90;56.60;;;;;;5113725;28;20102;-85
2023/08/17 09:20:46;;;;;;;5.18;2.13;;;27.90;56.60;;;;;;5112148;28;20200;-84
2023/08/17 09:23:14;;;;;;;4.70;2.20;;;27.90;56.60;;;;;;5111327;28;20047;-86
2023/08/17 09:25:41;;;;;;;3.83;2.28;;;27.90;57.40;;;;;;5112384;28;20023;-84
2023/08/17 09:28:18;;;;;;;3.90;2.30;;;27.90;56.70;;;;;;5140332;27;20024;-83
2023/08/17 09:31:00;;;;;;;2.00;1.90;;;27.90;56.70;;;;;;5113683;28;20055;-88
2023/08/17 09:33:29;;;;;;;8.88;7.55;;;27.90;56.40;;;;;;5113396;28;20040;-84
2023/08/17 09:35:55;;;;;;;2.35;2.15;;;28.00;56.40;;;;;;5110728;28;20044;-85
2023/08/17 09:38:21;;;;;;;2.13;1.90;;;28.00;56.10;;;;;;5138415;27;20031;-76
2023/08/17 09:40:48;;;;;;;2.00;1.90;;;28.00;56.00;;;;;;5111863;28;20034;-81
2023/08/17 09:43:17;;;;;;;2.75;1.80;;;28.10;55.90;;;;;;5113632;28;20080;-81
2023/08/17 09:45:46;;;;;;;3.08;1.80;;;28.10;55.70;;;;;;5113581;28;20047;-82
2023/08/17 09:48:15;;;;;;;2.00;1.65;;;28.20;55.60;;;;;;5117521;28;20466;-79
2023/08/17 09:50:43;;;;;;;2.15;1.95;;;28.20;55.40;;;;;;5117610;28;20030;-80
2023/08/17 09:53:16;;;;;;;2.25;1.75;;;28.30;55.40;;;;;;5115447;28;20034;-80
2023/08/17 09:55:43;;;;;;;3.13;2.30;;;28.30;55.30;;;;;;5116415;28;20478;-84
2023/08/17 09:58:09;;;;;;;2.13;1.92;;;28.30;55.50;;;;;;5123840;28;20525;-87
2023/08/17 10:00:37;;;;;;;3.60;2.00;;;28.30;55.40;;;;;;5127017;28;20023;-88
2023/08/17 10:03:04;;;;;;;2.30;2.10;;;28.30;55.10;;;;;;5147102;27;20027;-82
2023/08/17 10:05:35;;;;;;;2.65;1.90;;;28.30;55.20;;;;;;5116413;28;20454;-86
2023/08/17 10:08:05;;;;;;;3.05;1.80;;;28.30;55.10;;;;;;5117399;28;20054;-86
2023/08/17 10:10:40;;;;;;;2.40;1.80;;;28.30;55.00;;;;;;5117917;28;20043;-82
2023/08/17 10:13:10;;;;;;;2.92;1.80;;;28.40;55.10;;;;;;5117476;28;20110;-83
2023/08/17 10:15:59;;;;;;;3.10;1.95;;;28.40;55.20;;;;;;5114243;28;20031;-80
2023/08/17 10:18:57;;;;;;;2.38;1.90;;;28.50;54.90;;;;;;5116056;28;20023;-82
2023/08/17 10:21:29;;;;;;;2.40;2.00;;;28.40;53.80;;;;;;5115586;28;20027;-82
2023/08/17 10:23:58;;;;;;;1.80;1.67;;;28.40;54.60;;;;;;5113561;28;20024;-83
2023/08/17 10:26:25;;;;;;;2.50;1.80;;;28.50;54.50;;;;;;5117001;28;20072;-81
2023/08/17 10:28:51;;;;;;;2.15;1.67;;;28.50;54.50;;;;;;5114898;28;20027;-81
2023/08/17 10:31:17;;;;;;;2.70;1.80;;;28.50;54.40;;;;;;5116785;28;20032;-79
2023/08/17 10:33:45;;;;;;;2.05;1.60;;;28.60;54.60;;;;;;5115204;28;20024;-80
2023/08/17 10:36:12;;;;;;;2.80;2.50;;;28.60;54.40;;;;;;5141178;27;20151;-78
2023/08/17 10:38:38;;;;;;;2.15;1.60;;;28.60;54.30;;;;;;5141054;27;20020;-79
2023/08/17 10:41:13;;;;;;;1.95;1.85;;;28.70;54.20;;;;;;5116737;28;20027;-82
2023/08/17 10:43:55;;;;;;;3.80;2.00;;;28.70;54.20;;;;;;5114745;28;20027;-80
2023/08/17 10:46:21;;;;;;;1.80;1.70;;;28.70;54.20;;;;;;5114887;28;20036;-90
2023/08/17 10:48:46;;;;;;;2.00;1.75;;;28.70;54.30;;;;;;5115377;28;20433;-82
2023/08/17 10:51:16;;;;;;;2.03;1.73;;;28.70;54.30;;;;;;5116396;28;20030;-83
2023/08/17 10:53:43;;;;;;;2.83;1.80;;;28.70;54.10;;;;;;5141134;27;20032;-82
2023/08/17 10:56:14;;;;;;;3.67;1.98;;;28.80;54.20;;;;;;5114860;28;20034;-81
2023/08/17 10:58:42;;;;;;;2.15;1.55;;;28.80;54.10;;;;;;5113566;28;20083;-89
2023/08/17 11:01:07;;;;;;;3.72;1.80;;;28.90;54.70;;;;;;5115082;28;20119;-87
2023/08/17 11:03:33;;;;;;;3.92;2.67;;;28.90;54.20;;;;;;5113410;28;20057;-82
2023/08/17 11:06:18;;;;;;;1.77;1.67;;;28.90;54.30;;;;;;5116249;28;20032;-83
2023/08/17 11:08:57;;;;;;;2.38;1.70;;;28.90;53.80;;;;;;5115501;28;20446;-78
2023/08/17 11:11:23;;;;;;;2.40;1.75;;;28.90;54.10;;;;;;5114923;28;20047;-76
2023/08/17 11:13:49;;;;;;;1.95;1.65;;;28.90;54.00;;;;;;5114364;28;20050;-79
2023/08/17 11:16:19;;;;;;;1.70;1.60;;;28.90;54.10;;;;;;5114616;28;20126;-79
2023/08/17 11:18:46;;;;;;;4.57;1.80;;;28.90;53.70;;;;;;5140724;27;20030;-74
2023/08/17 11:21:12;;;;;;;3.78;1.80;;;28.90;53.70;;;;;;5116339;28;20024;-72
2023/08/17 11:23:38;;;;;;;2.08;1.63;;;28.90;53.60;;;;;;5116432;28;20024;-72
2023/08/17 11:26:04;;;;;;;1.70;1.60;;;28.90;53.60;;;;;;5114933;28;20073;-72
2023/08/17 11:28:36;;;;;;;3.65;1.80;;;28.90;53.60;;;;;;5124407;27;20055;-72
2023/08/17 11:31:03;;;;;;;2.80;1.67;;;29.00;53.40;;;;;;5095764;28;20369;-70
2023/08/17 11:33:30;;;;;;;1.52;1.42;;;29.00;53.40;;;;;;5103579;28;20465;-70
2023/08/17 11:36:01;;;;;;;2.05;1.60;;;29.10;53.60;;;;;;5114286;28;20032;-71
2023/08/17 11:38:34;;;;;;;5.70;5.05;;;29.10;53.50;;;;;;5115578;28;20024;-72
2023/08/17 11:41:00;;;;;;;2.15;1.58;;;29.10;52.90;;;;;;5114905;28;20416;-70
2023/08/17 11:43:28;;;;;;;1.58;1.48;;;29.10;52.60;;;;;;5115460;28;20462;-74
2023/08/17 11:45:55;;;;;;;1.70;1.58;;;29.20;52.40;;;;;;5115106;28;20047;-75
2023/08/17 11:48:21;;;;;;;3.47;1.90;;;29.20;52.60;;;;;;5115864;28;20144;-74
2023/08/17 11:50:49;;;;;;;2.60;1.77;;;29.30;52.40;;;;;;5110311;28;20058;-75
2023/08/17 11:53:14;;;;;;;1.40;1.30;;;29.30;52.30;;;;;;5093991;28;20089;-79
2023/08/17 11:55:40;;;;;;;1.20;1.10;;;29.40;52.30;;;;;;5094884;28;20043;-77
2023/08/17 11:58:07;;;;;;;1.30;1.20;;;29.40;52.40;;;;;;5095148;28;20036;-78
2023/08/17 12:00:39;;;;;;;2.20;1.52;;;29.40;52.30;;;;;;5094711;28;20028;-76
2023/08/17 12:03:05;;;;;;;1.17;1.08;;;29.30;52.10;;;;;;5100137;28;20055;-74
2023/08/17 12:05:32;;;;;;;1.30;1.00;;;29.40;52.20;;;;;;5115455;28;20031;-74
2023/08/17 12:08:01;;;;;;;1.00;1.00;;;29.40;52.00;;;;;;5113753;28;20074;-74
2023/08/17 12:10:34;;;;;;;1.33;1.10;;;29.40;52.00;;;;;;5114648;28;20059;-76
2023/08/17 12:13:01;;;;;;;1.27;1.17;;;29.50;52.10;;;;;;5113850;28;20028;-73
2023/08/17 12:15:45;;;;;;;1.23;1.13;;;29.50;52.20;;;;;;5113841;28;20068;-76
2023/08/17 12:18:10;;;;;;;;;;;29.50;52.30;;;;;;5115899;28;20098;-76
2023/08/17 12:20:36;;;;;;;1.38;1.30;;;29.40;51.10;;;;;;5115502;27;19987;-78
2023/08/17 12:23:03;;;;;;;4.22;0.90;;;29.50;52.10;;;;;;5115069;28;20055;-78
2023/08/17 12:25:30;;;;;;;1.88;1.02;;;29.50;52.10;;;;;;5113750;28;20034;-76
2023/08/17 12:27:58;;;;;;;1.02;0.90;;;29.60;52.20;;;;;;5114761;28;20126;-79
2023/08/17 12:30:31;;;;;;;1.80;0.98;;;29.60;52.90;;;;;;5115162;28;20385;-77
2023/08/17 12:32:57;;;;;;;0.93;0.93;;;29.60;52.30;;;;;;5114865;28;20042;-76
2023/08/17 12:35:24;;;;;;;1.15;1.05;;;29.70;52.30;;;;;;5113903;28;20020;-78
2023/08/17 12:37:50;;;;;;;1.85;1.02;;;29.70;52.10;;;;;;5113129;28;20115;-76
2023/08/17 12:40:16;;;;;;;2.03;1.10;;;29.80;52.00;;;;;;5112997;28;20024;-76
2023/08/17 12:42:42;;;;;;;1.55;1.00;;;29.80;51.80;;;;;;5114925;28;20024;-76
2023/08/17 12:45:08;;;;;;;1.20;1.10;;;29.90;51.90;;;;;;5114644;28;20028;-80
2023/08/17 12:47:33;;;;;;;1.00;1.00;;;29.90;51.80;;;;;;5114693;28;20381;-81